sensor_id;sensor_type;location;lat;lon;timestamp;P1;durP1;ratioP1;P2;durP2;ratioP2
26634;SDS011;14490;54.208;37.686;2023-04-15T00:00:36;3.10;;;0.90;;
26634;SDS011;14490;54.208;37.686;2023-04-15T00:03:04;1.90;;;1.05;;
26634;SDS011;14490;54.208;37.686;2023-04-15T00:05:32;3.03;;;1.17;;
26634;SDS011;14490;54.208;37.686;2023-04-15T00:08:00;4.07;;;1.70;;
26634;SDS011;14490;54.208;37.686;2023-04-15T00:10:27;2.13;;;1.25;;
26634;SDS011;14490;54.208;37.686;2023-04-15T00:12:56;1.92;;;1.08;;
26634;SDS011;14490;54.208;37.686;2023-04-15T00:15:23;2.08;;;0.90;;
26634;SDS011;14490;54.208;37.686;2023-04-15T00:17:51;2.20;;;1.13;;
26634;SDS011;14490;54.208;37.686;2023-04-15T00:20:19;1.33;;;0.85;;
26634;SDS011;14490;54.208;37.686;2023-04-15T00:22:46;1.67;;;0.80;;
26634;SDS011;14490;54.208;37.686;2023-04-15T00:25:14;2.05;;;0.90;;
26634;SDS011;14490;54.208;37.686;2023-04-15T00:27:42;1.65;;;1.00;;
26634;SDS011;14490;54.208;37.686;2023-04-15T00:30:11;3.35;;;0.98;;
26634;SDS011;14490;54.208;37.686;2023-04-15T00:32:40;2.42;;;1.10;;
26634;SDS011;14490;54.208;37.686;2023-04-15T00:35:07;2.75;;;0.90;;
26634;SDS011;14490;54.208;37.686;2023-04-15T00:37:35;2.10;;;0.88;;
26634;SDS011;14490;54.208;37.686;2023-04-15T00:40:02;1.27;;;0.80;;
26634;SDS011;14490;54.208;37.686;2023-04-15T00:42:33;3.17;;;1.02;;
26634;SDS011;14490;54.208;37.686;2023-04-15T00:45:02;2.88;;;1.38;;
26634;SDS011;14490;54.208;37.686;2023-04-15T00:47:32;2.38;;;1.20;;
26634;SDS011;14490;54.208;37.686;2023-04-15T00:50:01;3.13;;;1.05;;
26634;SDS011;14490;54.208;37.686;2023-04-15T00:52:29;3.75;;;1.10;;
26634;SDS011;14490;54.208;37.686;2023-04-15T00:54:56;4.63;;;1.05;;
26634;SDS011;14490;54.208;37.686;2023-04-15T00:57:24;2.63;;;1.08;;
26634;SDS011;14490;54.208;37.686;2023-04-15T00:59:52;2.15;;;1.20;;
26634;SDS011;14490;54.208;37.686;2023-04-15T01:02:21;2.13;;;1.00;;
26634;SDS011;14490;54.208;37.686;2023-04-15T01:04:51;5.70;;;1.20;;
26634;SDS011;14490;54.208;37.686;2023-04-15T01:07:18;1.90;;;1.10;;
26634;SDS011;14490;54.208;37.686;2023-04-15T01:09:46;2.42;;;1.10;;
26634;SDS011;14490;54.208;37.686;2023-04-15T01:12:13;2.00;;;1.10;;
26634;SDS011;14490;54.208;37.686;2023-04-15T01:14:42;4.20;;;0.93;;
26634;SDS011;14490;54.208;37.686;2023-04-15T01:17:10;3.42;;;1.27;;
26634;SDS011;14490;54.208;37.686;2023-04-15T01:19:37;2.67;;;0.95;;
26634;SDS011;14490;54.208;37.686;2023-04-15T01:22:07;2.33;;;0.88;;
26634;SDS011;14490;54.208;37.686;2023-04-15T01:24:34;2.85;;;1.00;;
26634;SDS011;14490;54.208;37.686;2023-04-15T01:27:04;7.70;;;1.73;;
26634;SDS011;14490;54.208;37.686;2023-04-15T01:29:33;1.35;;;0.73;;
26634;SDS011;14490;54.208;37.686;2023-04-15T01:32:03;3.00;;;0.80;;
26634;SDS011;14490;54.208;37.686;2023-04-15T01:34:31;2.42;;;0.93;;
26634;SDS011;14490;54.208;37.686;2023-04-15T01:36:58;1.35;;;0.85;;
26634;SDS011;14490;54.208;37.686;2023-04-15T01:39:25;1.27;;;0.90;;
26634;SDS011;14490;54.208;37.686;2023-04-15T01:41:56;1.67;;;1.08;;
26634;SDS011;14490;54.208;37.686;2023-04-15T01:44:25;1.95;;;0.90;;
26634;SDS011;14490;54.208;37.686;2023-04-15T01:46:52;3.92;;;1.35;;
26634;SDS011;14490;54.208;37.686;2023-04-15T01:49:19;3.53;;;1.20;;
26634;SDS011;14490;54.208;37.686;2023-04-15T01:51:47;1.70;;;1.10;;
26634;SDS011;14490;54.208;37.686;2023-04-15T01:54:14;3.83;;;1.27;;
26634;SDS011;14490;54.208;37.686;2023-04-15T01:56:42;2.22;;;1.00;;
26634;SDS011;14490;54.208;37.686;2023-04-15T01:59:09;1.35;;;0.90;;
26634;SDS011;14490;54.208;37.686;2023-04-15T02:01:38;2.17;;;1.02;;
26634;SDS011;14490;54.208;37.686;2023-04-15T02:04:06;6.43;;;1.08;;
26634;SDS011;14490;54.208;37.686;2023-04-15T02:06:40;2.00;;;1.00;;
26634;SDS011;14490;54.208;37.686;2023-04-15T02:09:08;1.63;;;1.13;;
26634;SDS011;14490;54.208;37.686;2023-04-15T02:11:36;6.43;;;0.93;;
26634;SDS011;14490;54.208;37.686;2023-04-15T02:14:03;5.82;;;0.95;;
26634;SDS011;14490;54.208;37.686;2023-04-15T02:16:31;1.90;;;0.70;;
26634;SDS011;14490;54.208;37.686;2023-04-15T02:19:00;3.03;;;0.77;;
26634;SDS011;14490;54.208;37.686;2023-04-15T02:21:28;1.20;;;0.63;;
26634;SDS011;14490;54.208;37.686;2023-04-15T02:23:56;2.80;;;1.00;;
26634;SDS011;14490;54.208;37.686;2023-04-15T02:26:23;1.15;;;0.70;;
26634;SDS011;14490;54.208;37.686;2023-04-15T02:28:51;1.50;;;0.98;;
26634;SDS011;14490;54.208;37.686;2023-04-15T02:31:18;1.85;;;0.75;;
26634;SDS011;14490;54.208;37.686;2023-04-15T02:33:46;2.78;;;1.20;;
26634;SDS011;14490;54.208;37.686;2023-04-15T02:36:15;5.05;;;1.00;;
26634;SDS011;14490;54.208;37.686;2023-04-15T02:38:42;3.67;;;0.90;;
26634;SDS011;14490;54.208;37.686;2023-04-15T02:41:10;2.75;;;0.85;;
26634;SDS011;14490;54.208;37.686;2023-04-15T02:43:37;3.05;;;0.90;;
26634;SDS011;14490;54.208;37.686;2023-04-15T02:46:05;3.85;;;1.08;;
26634;SDS011;14490;54.208;37.686;2023-04-15T02:48:33;3.30;;;0.77;;
26634;SDS011;14490;54.208;37.686;2023-04-15T02:51:10;1.60;;;0.75;;
26634;SDS011;14490;54.208;37.686;2023-04-15T02:53:44;5.18;;;0.85;;
26634;SDS011;14490;54.208;37.686;2023-04-15T02:56:11;2.58;;;0.68;;
26634;SDS011;14490;54.208;37.686;2023-04-15T02:58:39;2.17;;;1.52;;
26634;SDS011;14490;54.208;37.686;2023-04-15T03:01:07;1.77;;;0.70;;
26634;SDS011;14490;54.208;37.686;2023-04-15T03:03:35;2.80;;;0.73;;
26634;SDS011;14490;54.208;37.686;2023-04-15T03:06:02;1.50;;;0.60;;
26634;SDS011;14490;54.208;37.686;2023-04-15T03:08:31;1.75;;;0.82;;
26634;SDS011;14490;54.208;37.686;2023-04-15T03:10:58;2.28;;;0.82;;
26634;SDS011;14490;54.208;37.686;2023-04-15T03:13:26;4.32;;;0.70;;
26634;SDS011;14490;54.208;37.686;2023-04-15T03:15:54;1.95;;;0.88;;
26634;SDS011;14490;54.208;37.686;2023-04-15T03:18:21;4.10;;;0.80;;
26634;SDS011;14490;54.208;37.686;2023-04-15T03:20:49;1.10;;;0.50;;
26634;SDS011;14490;54.208;37.686;2023-04-15T03:23:16;0.90;;;0.65;;
26634;SDS011;14490;54.208;37.686;2023-04-15T03:25:45;4.15;;;1.08;;
26634;SDS011;14490;54.208;37.686;2023-04-15T03:28:12;9.68;;;2.65;;
26634;SDS011;14490;54.208;37.686;2023-04-15T03:30:40;2.97;;;1.10;;
26634;SDS011;14490;54.208;37.686;2023-04-15T03:33:07;4.68;;;1.15;;
26634;SDS011;14490;54.208;37.686;2023-04-15T03:35:35;2.97;;;1.30;;
26634;SDS011;14490;54.208;37.686;2023-04-15T03:38:02;3.80;;;1.10;;
26634;SDS011;14490;54.208;37.686;2023-04-15T03:40:29;3.30;;;1.20;;
26634;SDS011;14490;54.208;37.686;2023-04-15T03:42:58;1.85;;;1.00;;
26634;SDS011;14490;54.208;37.686;2023-04-15T03:45:26;7.82;;;1.20;;
26634;SDS011;14490;54.208;37.686;2023-04-15T03:47:53;2.70;;;0.95;;
26634;SDS011;14490;54.208;37.686;2023-04-15T03:50:20;7.20;;;1.20;;
26634;SDS011;14490;54.208;37.686;2023-04-15T03:52:48;2.45;;;1.17;;
26634;SDS011;14490;54.208;37.686;2023-04-15T03:55:16;3.28;;;0.90;;
26634;SDS011;14490;54.208;37.686;2023-04-15T03:57:44;2.15;;;0.90;;
26634;SDS011;14490;54.208;37.686;2023-04-15T04:00:13;1.85;;;1.10;;
26634;SDS011;14490;54.208;37.686;2023-04-15T04:02:41;1.75;;;0.90;;
26634;SDS011;14490;54.208;37.686;2023-04-15T04:05:10;0.73;;;0.52;;
26634;SDS011;14490;54.208;37.686;2023-04-15T04:07:37;2.30;;;0.88;;
26634;SDS011;14490;54.208;37.686;2023-04-15T04:10:05;2.00;;;1.00;;
26634;SDS011;14490;54.208;37.686;2023-04-15T04:12:33;3.63;;;0.90;;
26634;SDS011;14490;54.208;37.686;2023-04-15T04:15:01;1.65;;;1.00;;
26634;SDS011;14490;54.208;37.686;2023-04-15T04:17:30;7.45;;;1.02;;
26634;SDS011;14490;54.208;37.686;2023-04-15T04:19:57;6.60;;;1.05;;
26634;SDS011;14490;54.208;37.686;2023-04-15T04:22:25;1.52;;;0.70;;
26634;SDS011;14490;54.208;37.686;2023-04-15T04:24:54;2.28;;;0.70;;
26634;SDS011;14490;54.208;37.686;2023-04-15T04:27:23;3.15;;;0.73;;
26634;SDS011;14490;54.208;37.686;2023-04-15T04:29:51;1.23;;;0.80;;
26634;SDS011;14490;54.208;37.686;2023-04-15T04:32:18;1.10;;;0.80;;
26634;SDS011;14490;54.208;37.686;2023-04-15T04:34:47;1.58;;;0.68;;
26634;SDS011;14490;54.208;37.686;2023-04-15T04:37:14;0.88;;;0.70;;
26634;SDS011;14490;54.208;37.686;2023-04-15T04:39:42;4.63;;;0.70;;
26634;SDS011;14490;54.208;37.686;2023-04-15T04:42:09;3.63;;;0.57;;
26634;SDS011;14490;54.208;37.686;2023-04-15T04:44:37;2.75;;;0.70;;
26634;SDS011;14490;54.208;37.686;2023-04-15T04:47:04;8.38;;;1.27;;
26634;SDS011;14490;54.208;37.686;2023-04-15T04:49:31;3.03;;;1.50;;
26634;SDS011;14490;54.208;37.686;2023-04-15T04:52:02;4.55;;;0.68;;
26634;SDS011;14490;54.208;37.686;2023-04-15T04:54:29;1.85;;;0.70;;
26634;SDS011;14490;54.208;37.686;2023-04-15T04:56:57;4.95;;;0.82;;
26634;SDS011;14490;54.208;37.686;2023-04-15T04:59:25;1.83;;;0.40;;
26634;SDS011;14490;54.208;37.686;2023-04-15T05:01:52;5.85;;;0.70;;
26634;SDS011;14490;54.208;37.686;2023-04-15T05:04:19;1.27;;;0.57;;
26634;SDS011;14490;54.208;37.686;2023-04-15T05:06:47;5.70;;;0.52;;
26634;SDS011;14490;54.208;37.686;2023-04-15T05:09:18;4.05;;;0.70;;
26634;SDS011;14490;54.208;37.686;2023-04-15T05:11:45;7.53;;;0.60;;
26634;SDS011;14490;54.208;37.686;2023-04-15T05:14:12;4.22;;;0.82;;
26634;SDS011;14490;54.208;37.686;2023-04-15T05:16:40;1.75;;;0.57;;
26634;SDS011;14490;54.208;37.686;2023-04-15T05:19:07;4.07;;;0.70;;
26634;SDS011;14490;54.208;37.686;2023-04-15T05:21:35;3.38;;;0.70;;
26634;SDS011;14490;54.208;37.686;2023-04-15T05:24:03;2.03;;;0.50;;
26634;SDS011;14490;54.208;37.686;2023-04-15T05:26:32;2.42;;;0.52;;
26634;SDS011;14490;54.208;37.686;2023-04-15T05:29:00;2.85;;;0.70;;
26634;SDS011;14490;54.208;37.686;2023-04-15T05:31:27;1.52;;;0.52;;
26634;SDS011;14490;54.208;37.686;2023-04-15T05:33:54;2.60;;;0.50;;
26634;SDS011;14490;54.208;37.686;2023-04-15T05:36:22;5.10;;;0.60;;
26634;SDS011;14490;54.208;37.686;2023-04-15T05:38:50;2.28;;;0.70;;
26634;SDS011;14490;54.208;37.686;2023-04-15T05:41:17;1.35;;;0.40;;
26634;SDS011;14490;54.208;37.686;2023-04-15T05:43:46;1.10;;;0.60;;
26634;SDS011;14490;54.208;37.686;2023-04-15T05:46:13;1.67;;;0.60;;
26634;SDS011;14490;54.208;37.686;2023-04-15T05:48:41;4.13;;;0.70;;
26634;SDS011;14490;54.208;37.686;2023-04-15T05:51:08;2.25;;;0.82;;
26634;SDS011;14490;54.208;37.686;2023-04-15T05:53:36;0.98;;;0.50;;
26634;SDS011;14490;54.208;37.686;2023-04-15T05:56:05;1.63;;;0.70;;
26634;SDS011;14490;54.208;37.686;2023-04-15T05:58:33;3.20;;;0.75;;
26634;SDS011;14490;54.208;37.686;2023-04-15T06:01:02;3.13;;;0.85;;
26634;SDS011;14490;54.208;37.686;2023-04-15T06:03:30;1.67;;;0.90;;
26634;SDS011;14490;54.208;37.686;2023-04-15T06:05:58;2.17;;;0.90;;
26634;SDS011;14490;54.208;37.686;2023-04-15T06:08:26;5.28;;;0.55;;
26634;SDS011;14490;54.208;37.686;2023-04-15T06:10:54;3.75;;;0.52;;
26634;SDS011;14490;54.208;37.686;2023-04-15T06:13:22;3.95;;;0.73;;
26634;SDS011;14490;54.208;37.686;2023-04-15T06:15:50;1.48;;;0.60;;
26634;SDS011;14490;54.208;37.686;2023-04-15T06:18:19;1.90;;;0.55;;
26634;SDS011;14490;54.208;37.686;2023-04-15T06:20:47;1.63;;;0.75;;
26634;SDS011;14490;54.208;37.686;2023-04-15T06:23:16;2.03;;;0.70;;
26634;SDS011;14490;54.208;37.686;2023-04-15T06:25:46;3.88;;;0.60;;
26634;SDS011;14490;54.208;37.686;2023-04-15T06:28:15;3.85;;;0.50;;
26634;SDS011;14490;54.208;37.686;2023-04-15T06:30:44;1.75;;;0.70;;
26634;SDS011;14490;54.208;37.686;2023-04-15T06:33:12;0.90;;;0.50;;
26634;SDS011;14490;54.208;37.686;2023-04-15T06:35:43;3.13;;;0.70;;
26634;SDS011;14490;54.208;37.686;2023-04-15T06:38:11;1.52;;;0.70;;
26634;SDS011;14490;54.208;37.686;2023-04-15T06:40:44;1.45;;;0.45;;
26634;SDS011;14490;54.208;37.686;2023-04-15T06:46:19;1.83;;;0.60;;
26634;SDS011;14490;54.208;37.686;2023-04-15T06:48:46;2.85;;;0.60;;
26634;SDS011;14490;54.208;37.686;2023-04-15T06:51:15;1.85;;;0.60;;
26634;SDS011;14490;54.208;37.686;2023-04-15T06:53:45;1.85;;;0.60;;
26634;SDS011;14490;54.208;37.686;2023-04-15T06:56:13;1.83;;;0.95;;
26634;SDS011;14490;54.208;37.686;2023-04-15T06:58:43;4.10;;;0.90;;
26634;SDS011;14490;54.208;37.686;2023-04-15T07:01:12;3.87;;;0.73;;
26634;SDS011;14490;54.208;37.686;2023-04-15T07:03:39;1.65;;;0.70;;
26634;SDS011;14490;54.208;37.686;2023-04-15T07:06:07;2.20;;;0.45;;
26634;SDS011;14490;54.208;37.686;2023-04-15T07:08:35;4.10;;;0.80;;
26634;SDS011;14490;54.208;37.686;2023-04-15T07:11:15;2.80;;;0.70;;
26634;SDS011;14490;54.208;37.686;2023-04-15T07:13:48;4.00;;;0.80;;
26634;SDS011;14490;54.208;37.686;2023-04-15T07:20:14;2.03;;;0.50;;
26634;SDS011;14490;54.208;37.686;2023-04-15T07:22:49;2.35;;;0.60;;
26634;SDS011;14490;54.208;37.686;2023-04-15T07:25:26;1.75;;;0.77;;
26634;SDS011;14490;54.208;37.686;2023-04-15T07:28:13;3.85;;;0.60;;
26634;SDS011;14490;54.208;37.686;2023-04-15T07:30:44;8.68;;;1.02;;
26634;SDS011;14490;54.208;37.686;2023-04-15T07:33:17;5.00;;;0.80;;
26634;SDS011;14490;54.208;37.686;2023-04-15T07:35:48;4.72;;;1.05;;
26634;SDS011;14490;54.208;37.686;2023-04-15T07:38:15;4.68;;;0.90;;
26634;SDS011;14490;54.208;37.686;2023-04-15T07:40:44;4.43;;;0.70;;
26634;SDS011;14490;54.208;37.686;2023-04-15T07:43:12;1.17;;;0.60;;
26634;SDS011;14490;54.208;37.686;2023-04-15T07:45:40;1.65;;;1.20;;
26634;SDS011;14490;54.208;37.686;2023-04-15T07:48:07;5.30;;;0.98;;
26634;SDS011;14490;54.208;37.686;2023-04-15T07:50:35;3.38;;;0.90;;
26634;SDS011;14490;54.208;37.686;2023-04-15T07:53:03;2.45;;;0.70;;
26634;SDS011;14490;54.208;37.686;2023-04-15T07:55:31;6.60;;;0.85;;
26634;SDS011;14490;54.208;37.686;2023-04-15T07:58:00;2.78;;;0.90;;
26634;SDS011;14490;54.208;37.686;2023-04-15T08:00:27;8.10;;;1.23;;
26634;SDS011;14490;54.208;37.686;2023-04-15T08:02:55;3.80;;;0.57;;
26634;SDS011;14490;54.208;37.686;2023-04-15T08:05:23;2.67;;;1.02;;
26634;SDS011;14490;54.208;37.686;2023-04-15T08:07:51;3.78;;;0.77;;
26634;SDS011;14490;54.208;37.686;2023-04-15T08:10:19;3.78;;;0.60;;
26634;SDS011;14490;54.208;37.686;2023-04-15T08:12:50;3.60;;;0.90;;
26634;SDS011;14490;54.208;37.686;2023-04-15T08:15:22;5.25;;;1.00;;
26634;SDS011;14490;54.208;37.686;2023-04-15T08:17:51;2.17;;;0.80;;
26634;SDS011;14490;54.208;37.686;2023-04-15T08:20:20;1.83;;;0.88;;
26634;SDS011;14490;54.208;37.686;2023-04-15T08:22:48;6.32;;;1.27;;
26634;SDS011;14490;54.208;37.686;2023-04-15T08:25:18;4.40;;;0.80;;
26634;SDS011;14490;54.208;37.686;2023-04-15T08:27:53;5.75;;;1.20;;
26634;SDS011;14490;54.208;37.686;2023-04-15T08:30:26;5.95;;;0.80;;
26634;SDS011;14490;54.208;37.686;2023-04-15T08:32:54;4.35;;;0.70;;
26634;SDS011;14490;54.208;37.686;2023-04-15T08:35:22;1.92;;;0.65;;
26634;SDS011;14490;54.208;37.686;2023-04-15T08:37:49;3.05;;;0.93;;
26634;SDS011;14490;54.208;37.686;2023-04-15T08:40:16;3.28;;;0.70;;
26634;SDS011;14490;54.208;37.686;2023-04-15T08:42:44;1.08;;;0.80;;
26634;SDS011;14490;54.208;37.686;2023-04-15T08:45:18;4.63;;;1.00;;
26634;SDS011;14490;54.208;37.686;2023-04-15T08:48:12;4.57;;;0.93;;
26634;SDS011;14490;54.208;37.686;2023-04-15T08:50:43;4.95;;;1.15;;
26634;SDS011;14490;54.208;37.686;2023-04-15T08:53:12;9.55;;;1.95;;
26634;SDS011;14490;54.208;37.686;2023-04-15T08:55:43;3.15;;;1.10;;
26634;SDS011;14490;54.208;37.686;2023-04-15T08:58:13;3.83;;;1.05;;
26634;SDS011;14490;54.208;37.686;2023-04-15T09:00:42;1.50;;;0.98;;
26634;SDS011;14490;54.208;37.686;2023-04-15T09:03:10;2.92;;;1.23;;
26634;SDS011;14490;54.208;37.686;2023-04-15T09:05:38;4.07;;;1.52;;
26634;SDS011;14490;54.208;37.686;2023-04-15T09:08:06;1.80;;;1.20;;
26634;SDS011;14490;54.208;37.686;2023-04-15T09:10:34;3.22;;;1.15;;
26634;SDS011;14490;54.208;37.686;2023-04-15T09:13:02;2.15;;;1.00;;
26634;SDS011;14490;54.208;37.686;2023-04-15T09:15:29;2.80;;;0.90;;
26634;SDS011;14490;54.208;37.686;2023-04-15T09:17:59;1.55;;;0.95;;
26634;SDS011;14490;54.208;37.686;2023-04-15T09:20:28;3.25;;;0.90;;
26634;SDS011;14490;54.208;37.686;2023-04-15T09:22:55;4.43;;;1.10;;
26634;SDS011;14490;54.208;37.686;2023-04-15T09:25:26;3.00;;;0.90;;
26634;SDS011;14490;54.208;37.686;2023-04-15T09:27:55;2.28;;;1.00;;
26634;SDS011;14490;54.208;37.686;2023-04-15T09:30:24;3.97;;;0.90;;
26634;SDS011;14490;54.208;37.686;2023-04-15T09:32:55;2.63;;;1.25;;
26634;SDS011;14490;54.208;37.686;2023-04-15T09:35:27;2.63;;;0.90;;
26634;SDS011;14490;54.208;37.686;2023-04-15T09:38:00;2.83;;;0.90;;
26634;SDS011;14490;54.208;37.686;2023-04-15T09:40:33;5.78;;;1.27;;
26634;SDS011;14490;54.208;37.686;2023-04-15T09:43:02;5.00;;;1.55;;
26634;SDS011;14490;54.208;37.686;2023-04-15T09:45:33;3.55;;;1.30;;
26634;SDS011;14490;54.208;37.686;2023-04-15T09:48:13;3.55;;;1.15;;
26634;SDS011;14490;54.208;37.686;2023-04-15T09:50:47;4.10;;;1.00;;
26634;SDS011;14490;54.208;37.686;2023-04-15T09:53:18;3.70;;;1.20;;
26634;SDS011;14490;54.208;37.686;2023-04-15T09:55:48;10.25;;;3.08;;
26634;SDS011;14490;54.208;37.686;2023-04-15T09:58:17;2.78;;;1.02;;
26634;SDS011;14490;54.208;37.686;2023-04-15T10:00:46;2.83;;;1.23;;
26634;SDS011;14490;54.208;37.686;2023-04-15T10:03:16;4.63;;;1.00;;
26634;SDS011;14490;54.208;37.686;2023-04-15T10:05:54;2.50;;;0.90;;
26634;SDS011;14490;54.208;37.686;2023-04-15T10:10:52;2.25;;;0.88;;
26634;SDS011;14490;54.208;37.686;2023-04-15T10:13:21;4.45;;;1.40;;
26634;SDS011;14490;54.208;37.686;2023-04-15T10:15:51;2.80;;;1.10;;
26634;SDS011;14490;54.208;37.686;2023-04-15T10:18:24;3.15;;;1.30;;
26634;SDS011;14490;54.208;37.686;2023-04-15T10:20:54;6.18;;;1.55;;
26634;SDS011;14490;54.208;37.686;2023-04-15T10:23:22;2.90;;;1.50;;
26634;SDS011;14490;54.208;37.686;2023-04-15T10:25:50;3.67;;;1.38;;
26634;SDS011;14490;54.208;37.686;2023-04-15T10:28:19;7.78;;;2.45;;
26634;SDS011;14490;54.208;37.686;2023-04-15T10:30:48;4.00;;;1.50;;
26634;SDS011;14490;54.208;37.686;2023-04-15T10:33:16;5.68;;;2.10;;
26634;SDS011;14490;54.208;37.686;2023-04-15T10:35:47;5.63;;;1.50;;
26634;SDS011;14490;54.208;37.686;2023-04-15T10:41:14;3.60;;;1.38;;
26634;SDS011;14490;54.208;37.686;2023-04-15T10:43:47;4.95;;;1.25;;
26634;SDS011;14490;54.208;37.686;2023-04-15T10:46:23;5.90;;;1.35;;
26634;SDS011;14490;54.208;37.686;2023-04-15T10:49:06;6.82;;;1.50;;
26634;SDS011;14490;54.208;37.686;2023-04-15T10:51:36;4.35;;;1.73;;
26634;SDS011;14490;54.208;37.686;2023-04-15T10:54:12;6.00;;;1.40;;
26634;SDS011;14490;54.208;37.686;2023-04-15T10:56:43;7.85;;;1.35;;
26634;SDS011;14490;54.208;37.686;2023-04-15T10:59:14;5.15;;;1.20;;
26634;SDS011;14490;54.208;37.686;2023-04-15T11:01:50;7.90;;;1.50;;
26634;SDS011;14490;54.208;37.686;2023-04-15T11:07:32;2.65;;;1.15;;
26634;SDS011;14490;54.208;37.686;2023-04-15T11:10:03;2.28;;;1.02;;
26634;SDS011;14490;54.208;37.686;2023-04-15T11:13:16;4.47;;;1.35;;
26634;SDS011;14490;54.208;37.686;2023-04-15T11:16:01;10.45;;;1.60;;
26634;SDS011;14490;54.208;37.686;2023-04-15T11:18:35;4.70;;;1.80;;
26634;SDS011;14490;54.208;37.686;2023-04-15T11:22:05;6.75;;;3.92;;
26634;SDS011;14490;54.208;37.686;2023-04-15T11:24:46;3.42;;;1.83;;
26634;SDS011;14490;54.208;37.686;2023-04-15T11:27:22;5.05;;;2.20;;
26634;SDS011;14490;54.208;37.686;2023-04-15T11:29:50;8.13;;;2.40;;
26634;SDS011;14490;54.208;37.686;2023-04-15T11:32:26;3.50;;;2.42;;
26634;SDS011;14490;54.208;37.686;2023-04-15T11:34:53;23.75;;;5.13;;
26634;SDS011;14490;54.208;37.686;2023-04-15T11:37:26;6.57;;;3.65;;
26634;SDS011;14490;54.208;37.686;2023-04-15T11:39:57;7.18;;;2.90;;
26634;SDS011;14490;54.208;37.686;2023-04-15T11:42:35;6.63;;;2.97;;
26634;SDS011;14490;54.208;37.686;2023-04-15T11:45:06;12.00;;;2.67;;
26634;SDS011;14490;54.208;37.686;2023-04-15T11:47:35;8.00;;;2.58;;
26634;SDS011;14490;54.208;37.686;2023-04-15T11:50:12;10.30;;;2.88;;
26634;SDS011;14490;54.208;37.686;2023-04-15T11:52:53;5.72;;;1.88;;
26634;SDS011;14490;54.208;37.686;2023-04-15T11:55:26;5.00;;;2.45;;
26634;SDS011;14490;54.208;37.686;2023-04-15T11:58:13;9.80;;;2.00;;
26634;SDS011;14490;54.208;37.686;2023-04-15T12:00:54;3.35;;;1.70;;
26634;SDS011;14490;54.208;37.686;2023-04-15T12:03:47;6.93;;;1.90;;
26634;SDS011;14490;54.208;37.686;2023-04-15T12:06:21;4.28;;;1.98;;
26634;SDS011;14490;54.208;37.686;2023-04-15T12:08:54;7.25;;;2.28;;
26634;SDS011;14490;54.208;37.686;2023-04-15T12:11:33;3.72;;;1.75;;
26634;SDS011;14490;54.208;37.686;2023-04-15T12:14:08;4.25;;;2.20;;
26634;SDS011;14490;54.208;37.686;2023-04-15T12:16:39;7.88;;;3.20;;
26634;SDS011;14490;54.208;37.686;2023-04-15T12:19:24;6.22;;;2.53;;
26634;SDS011;14490;54.208;37.686;2023-04-15T12:21:57;8.32;;;2.13;;
26634;SDS011;14490;54.208;37.686;2023-04-15T12:24:26;7.85;;;2.55;;
26634;SDS011;14490;54.208;37.686;2023-04-15T12:26:57;6.00;;;2.93;;
26634;SDS011;14490;54.208;37.686;2023-04-15T12:30:05;4.32;;;3.08;;
26634;SDS011;14490;54.208;37.686;2023-04-15T12:32:52;11.65;;;3.50;;
26634;SDS011;14490;54.208;37.686;2023-04-15T12:35:22;8.20;;;2.95;;
26634;SDS011;14490;54.208;37.686;2023-04-15T12:37:51;8.32;;;2.40;;
26634;SDS011;14490;54.208;37.686;2023-04-15T12:40:45;4.32;;;2.35;;
26634;SDS011;14490;54.208;37.686;2023-04-15T12:43:13;3.63;;;1.92;;
26634;SDS011;14490;54.208;37.686;2023-04-15T12:45:42;7.30;;;2.40;;
26634;SDS011;14490;54.208;37.686;2023-04-15T12:48:09;8.30;;;2.40;;
26634;SDS011;14490;54.208;37.686;2023-04-15T12:50:37;4.88;;;2.30;;
26634;SDS011;14490;54.208;37.686;2023-04-15T12:53:05;5.00;;;2.25;;
26634;SDS011;14490;54.208;37.686;2023-04-15T12:55:33;6.35;;;2.63;;
26634;SDS011;14490;54.208;37.686;2023-04-15T12:58:03;4.18;;;1.85;;
26634;SDS011;14490;54.208;37.686;2023-04-15T13:00:36;5.45;;;2.10;;
26634;SDS011;14490;54.208;37.686;2023-04-15T13:03:06;14.38;;;2.30;;
26634;SDS011;14490;54.208;37.686;2023-04-15T13:05:34;4.60;;;1.92;;
26634;SDS011;14490;54.208;37.686;2023-04-15T13:08:04;5.40;;;1.65;;
26634;SDS011;14490;54.208;37.686;2023-04-15T13:10:32;4.75;;;2.15;;
26634;SDS011;14490;54.208;37.686;2023-04-15T13:13:01;9.70;;;2.00;;
26634;SDS011;14490;54.208;37.686;2023-04-15T13:15:29;8.82;;;2.10;;
26634;SDS011;14490;54.208;37.686;2023-04-15T13:17:57;2.47;;;1.88;;
26634;SDS011;14490;54.208;37.686;2023-04-15T13:20:25;6.57;;;2.45;;
26634;SDS011;14490;54.208;37.686;2023-04-15T13:22:56;6.93;;;2.50;;
26634;SDS011;14490;54.208;37.686;2023-04-15T13:25:24;6.43;;;2.20;;
26634;SDS011;14490;54.208;37.686;2023-04-15T13:27:52;3.88;;;1.70;;
26634;SDS011;14490;54.208;37.686;2023-04-15T13:30:19;6.30;;;1.90;;
26634;SDS011;14490;54.208;37.686;2023-04-15T13:32:46;6.07;;;1.75;;
26634;SDS011;14490;54.208;37.686;2023-04-15T13:35:17;8.10;;;2.60;;
26634;SDS011;14490;54.208;37.686;2023-04-15T13:37:48;8.45;;;2.03;;
26634;SDS011;14490;54.208;37.686;2023-04-15T13:40:15;4.97;;;2.47;;
26634;SDS011;14490;54.208;37.686;2023-04-15T13:42:43;9.07;;;2.00;;
26634;SDS011;14490;54.208;37.686;2023-04-15T13:45:12;4.20;;;2.25;;
26634;SDS011;14490;54.208;37.686;2023-04-15T13:47:42;5.05;;;2.70;;
26634;SDS011;14490;54.208;37.686;2023-04-15T13:50:10;5.57;;;2.83;;
26634;SDS011;14490;54.208;37.686;2023-04-15T13:52:37;7.28;;;2.20;;
26634;SDS011;14490;54.208;37.686;2023-04-15T13:55:08;8.23;;;3.20;;
26634;SDS011;14490;54.208;37.686;2023-04-15T13:57:36;9.25;;;3.20;;
26634;SDS011;14490;54.208;37.686;2023-04-15T14:00:04;5.90;;;2.50;;
26634;SDS011;14490;54.208;37.686;2023-04-15T14:02:33;9.90;;;4.22;;
26634;SDS011;14490;54.208;37.686;2023-04-15T14:05:01;7.78;;;3.03;;
26634;SDS011;14490;54.208;37.686;2023-04-15T14:07:29;3.92;;;2.60;;
26634;SDS011;14490;54.208;37.686;2023-04-15T14:09:56;10.77;;;4.10;;
26634;SDS011;14490;54.208;37.686;2023-04-15T14:12:25;12.05;;;5.30;;
26634;SDS011;14490;54.208;37.686;2023-04-15T14:14:53;8.07;;;3.88;;
26634;SDS011;14490;54.208;37.686;2023-04-15T14:17:21;9.68;;;3.88;;
26634;SDS011;14490;54.208;37.686;2023-04-15T14:19:49;11.95;;;4.65;;
26634;SDS011;14490;54.208;37.686;2023-04-15T14:22:16;7.78;;;5.10;;
26634;SDS011;14490;54.208;37.686;2023-04-15T14:24:45;9.02;;;5.43;;
26634;SDS011;14490;54.208;37.686;2023-04-15T14:27:13;10.77;;;5.13;;
26634;SDS011;14490;54.208;37.686;2023-04-15T14:29:43;12.95;;;4.15;;
26634;SDS011;14490;54.208;37.686;2023-04-15T14:32:10;11.50;;;3.92;;
26634;SDS011;14490;54.208;37.686;2023-04-15T14:34:40;9.77;;;3.97;;
26634;SDS011;14490;54.208;37.686;2023-04-15T14:37:07;10.73;;;3.80;;
26634;SDS011;14490;54.208;37.686;2023-04-15T14:39:35;16.05;;;4.20;;
26634;SDS011;14490;54.208;37.686;2023-04-15T14:42:02;7.13;;;3.03;;
26634;SDS011;14490;54.208;37.686;2023-04-15T14:44:30;9.15;;;3.28;;
26634;SDS011;14490;54.208;37.686;2023-04-15T14:46:59;6.50;;;2.90;;
26634;SDS011;14490;54.208;37.686;2023-04-15T14:49:27;6.35;;;3.10;;
26634;SDS011;14490;54.208;37.686;2023-04-15T14:51:55;6.53;;;2.75;;
26634;SDS011;14490;54.208;37.686;2023-04-15T14:54:24;6.45;;;3.22;;
26634;SDS011;14490;54.208;37.686;2023-04-15T14:56:52;10.35;;;2.17;;
26634;SDS011;14490;54.208;37.686;2023-04-15T14:59:22;7.53;;;2.53;;
26634;SDS011;14490;54.208;37.686;2023-04-15T15:01:53;2.95;;;2.38;;
26634;SDS011;14490;54.208;37.686;2023-04-15T15:04:35;3.65;;;2.17;;